Buoy 46930

sailwx.info

Track history (hours):
 
Tides and Currents Weather Stations Pressure Air Temp Water Temp Dewpoint Dewpoint Depression Visibility Wind Speed Wind Dir Waves Ship Positions

Drifting buoy 46930

Last reported at 2017-Feb-22 19:00 UTC. Time now 2017-Feb-22 22:04 UTC.
Position N 17°20' E 167°30'.

Date/timePositionNaut miles runAvg speedWind from/ knotsBaromVisibWave heightAir tempDewpointWater temp
2017-Feb-22 19:00N 17°20' E 167°30'5 0.5
2017-Feb-22 10:00N 17°17' E 167°27'1 0.6
2017-Feb-22 09:00N 17°16' E 167°27'1 1.2
2017-Feb-22 08:00N 17°15' E 167°27'2 1.9
2017-Feb-22 07:00N 17°13' E 167°28'4 0.5
2017-Feb-21 23:00N 17°10' E 167°29'2 0.7
2017-Feb-21 20:00N 17°08' E 167°31'0 0.0
2017-Feb-21 19:00N 17°08' E 167°31'1 1.3
2017-Feb-21 18:00N 17°07' E 167°32'0 0.0
2017-Feb-21 17:00N 17°07' E 167°32'4 0.7
2017-Feb-21 11:00N 17°06' E 167°36'1 0.6
2017-Feb-21 09:00N 17°07' E 167°37'1 0.6
2017-Feb-21 08:00N 17°06' E 167°37'1 0.6
2017-Feb-21 07:00N 17°06' E 167°38'1 0.6
2017-Feb-21 06:00N 17°06' E 167°38'1 0.6
2017-Feb-21 04:00N 17°05' E 167°40'5 0.5
2017-Feb-20 19:00N 17°04' E 167°44'7 0.8
2017-Feb-20 10:00N 17°04' E 167°52'0 0.0
2017-Feb-20 09:00N 17°04' E 167°52'1 1.1
2017-Feb-20 08:00N 17°04' E 167°53'1 0.4
2017-Feb-20 06:00N 17°04' E 167°53'1 0.6
2017-Feb-20 05:00N 17°04' E 167°53'0 0.0
2017-Feb-20 04:00N 17°04' E 167°53'5 0.8
2017-Feb-19 22:00N 17°04' E 167°58'1 0.4
2017-Feb-19 19:00N 17°05' E 167°59'1 1.3
2017-Feb-19 18:00N 17°04' E 168°00'1 0.6
2017-Feb-19 17:00N 17°05' E 168°00'1 0.6
2017-Feb-19 16:00N 17°05' E 168°00'1 1.3
2017-Feb-19 15:00N 17°06' E 168°01'3 0.7
2017-Feb-19 11:00N 17°08' E 168°02'1 0.6
2017-Feb-19 10:00N 17°08' E 168°03'1 0.6
2017-Feb-19 08:00N 17°10' E 168°03'1 0.6
2017-Feb-19 07:00N 17°10' E 168°03'1 1.2
2017-Feb-19 06:00N 17°11' E 168°03'2 0.6
2017-Feb-19 03:00N 17°13' E 168°04'0 0.0
2017-Feb-19 01:00N 17°13' E 168°04'3 1.0
2017-Feb-18 22:00N 17°16' E 168°02'2 0.6
2017-Feb-18 19:00N 17°17' E 168°01'1 0.7
2017-Feb-18 17:00N 17°18' E 168°00'6 0.7
2017-Feb-18 09:00N 17°22' E 167°56'1 0.7
2017-Feb-18 07:00N 17°23' E 167°55'1 0.6
2017-Feb-18 06:00N 17°24' E 167°55'1 1.2
2017-Feb-18 05:00N 17°25' E 167°55'2 0.9
2017-Feb-18 03:00N 17°27' E 167°56'0 0.0
2017-Feb-18 01:00N 17°27' E 167°56'7 1.7
2017-Feb-17 21:00N 17°34' E 167°55'1 0.6
2017-Feb-17 19:00N 17°35' E 167°55'2 1.9
2017-Feb-17 18:00N 17°37' E 167°56'7 0.9
2017-Feb-17 10:00N 17°43' E 167°58'1 0.6
2017-Feb-17 09:00N 17°44' E 167°58'2 1.2
2017-Feb-17 07:00N 17°46' E 167°58'2 1.2
2017-Feb-17 05:00N 17°49' E 167°57'1 0.8
2017-Feb-17 04:00N 17°49' E 167°56'2 1.8
2017-Feb-17 03:00N 17°51' E 167°56'2 0.6
2017-Feb-16 23:00N 17°53' E 167°56'1 0.6
2017-Feb-16 21:00N 17°55' E 167°56'0 0.0
2017-Feb-16 20:00N 17°55' E 167°56'3 1.5
2017-Feb-16 18:00N 17°58' E 167°55'6 0.9
2017-Feb-16 11:00N 18°01' E 167°49'3 1.0
2017-Feb-16 08:00N 18°02' E 167°46'1 0.6
2017-Feb-16 07:00N 18°02' E 167°46'1 1.1
2017-Feb-16 06:00N 18°02' E 167°44'2 1.8
2017-Feb-16 05:00N 18°02' E 167°43'1 0.6
2017-Feb-16 03:00N 18°02' E 167°41'6 0.9
2017-Feb-15 20:00N 18°04' E 167°35'1 1.1
2017-Feb-15 19:00N 18°04' E 167°34'1 1.1
2017-Feb-15 18:00N 18°04' E 167°32'1 0.8
2017-Feb-15 17:00N 18°04' E 167°32'9 1.2
2017-Feb-15 10:00N 18°05' E 167°23'1 1.1
2017-Feb-15 09:00N 18°05' E 167°22'2 2.4
2017-Feb-15 08:00N 18°06' E 167°19'2 1.7
2017-Feb-15 07:00N 18°06' E 167°17'1 0.6
2017-Feb-15 06:00N 18°06' E 167°17'2 1.8
2017-Feb-15 05:00N 18°05' E 167°15'2 1.1
2017-Feb-15 03:00N 18°05' E 167°13'4 0.8
2017-Feb-14 22:00N 18°04' E 167°08'2 1.2
2017-Feb-14 20:00N 18°04' E 167°06'1 1.1
2017-Feb-14 19:00N 18°04' E 167°05'5 0.5
2017-Feb-14 08:00N 18°05' E 166°59'0 0.0
2017-Feb-14 07:00N 18°05' E 166°59'4 1.2
2017-Feb-14 04:00N 18°07' E 166°56'6 0.7
2017-Feb-13 20:00N 18°11' E 166°52'1 0.6
2017-Feb-13 19:00N 18°11' E 166°52'6 0.6
2017-Feb-13 09:00N 18°11' E 166°45'1 0.6
2017-Feb-13 08:00N 18°10' E 166°45'0 0.0
2017-Feb-13 07:00N 18°10' E 166°45'1 0.3
2017-Feb-13 05:00N 18°10' E 166°44'1 0.8
2017-Feb-13 04:00N 18°10' E 166°44'1 0.2
2017-Feb-12 21:00N 18°10' E 166°43'1 0.6
2017-Feb-12 20:00N 18°10' E 166°42'0 0.0
2017-Feb-12 19:00N 18°10' E 166°42'  
Track history (hours):
 
Tides and Currents Weather Stations Pressure Air Temp Water Temp Dewpoint Dewpoint Depression Visibility Wind Speed Wind Dir Waves Ship Positions

Drifting buoy 46930

Last reported at 2017-Feb-22 19:00 UTC. Time now 2017-Feb-22 22:04 UTC.
Position N 17°20' E 167°30'.

Date/timePositionNaut miles runAvg speedWind from/ knotsBaromVisibWave heightAir tempDewpointWater temp
2017-Feb-22 19:00N 17°20' E 167°30'5 0.5
2017-Feb-22 10:00N 17°17' E 167°27'1 0.6
2017-Feb-22 09:00N 17°16' E 167°27'1 1.2
2017-Feb-22 08:00N 17°15' E 167°27'2 1.9
2017-Feb-22 07:00N 17°13' E 167°28'4 0.5
2017-Feb-21 23:00N 17°10' E 167°29'2 0.7
2017-Feb-21 20:00N 17°08' E 167°31'0 0.0
2017-Feb-21 19:00N 17°08' E 167°31'1 1.3
2017-Feb-21 18:00N 17°07' E 167°32'0 0.0
2017-Feb-21 17:00N 17°07' E 167°32'4 0.7
2017-Feb-21 11:00N 17°06' E 167°36'1 0.6
2017-Feb-21 09:00N 17°07' E 167°37'1 0.6
2017-Feb-21 08:00N 17°06' E 167°37'1 0.6
2017-Feb-21 07:00N 17°06' E 167°38'1 0.6
2017-Feb-21 06:00N 17°06' E 167°38'1 0.6
2017-Feb-21 04:00N 17°05' E 167°40'5 0.5
2017-Feb-20 19:00N 17°04' E 167°44'7 0.8
2017-Feb-20 10:00N 17°04' E 167°52'0 0.0
2017-Feb-20 09:00N 17°04' E 167°52'1 1.1
2017-Feb-20 08:00N 17°04' E 167°53'1 0.4
2017-Feb-20 06:00N 17°04' E 167°53'1 0.6
2017-Feb-20 05:00N 17°04' E 167°53'0 0.0
2017-Feb-20 04:00N 17°04' E 167°53'5 0.8
2017-Feb-19 22:00N 17°04' E 167°58'1 0.4
2017-Feb-19 19:00N 17°05' E 167°59'1 1.3
2017-Feb-19 18:00N 17°04' E 168°00'1 0.6
2017-Feb-19 17:00N 17°05' E 168°00'1 0.6
2017-Feb-19 16:00N 17°05' E 168°00'1 1.3
2017-Feb-19 15:00N 17°06' E 168°01'3 0.7
2017-Feb-19 11:00N 17°08' E 168°02'1 0.6
2017-Feb-19 10:00N 17°08' E 168°03'1 0.6
2017-Feb-19 08:00N 17°10' E 168°03'1 0.6
2017-Feb-19 07:00N 17°10' E 168°03'1 1.2
2017-Feb-19 06:00N 17°11' E 168°03'2 0.6
2017-Feb-19 03:00N 17°13' E 168°04'0 0.0
2017-Feb-19 01:00N 17°13' E 168°04'3 1.0
2017-Feb-18 22:00N 17°16' E 168°02'2 0.6
2017-Feb-18 19:00N 17°17' E 168°01'1 0.7
2017-Feb-18 17:00N 17°18' E 168°00'6 0.7
2017-Feb-18 09:00N 17°22' E 167°56'1 0.7
2017-Feb-18 07:00N 17°23' E 167°55'1 0.6
2017-Feb-18 06:00N 17°24' E 167°55'1 1.2
2017-Feb-18 05:00N 17°25' E 167°55'2 0.9
2017-Feb-18 03:00N 17°27' E 167°56'0 0.0
2017-Feb-18 01:00N 17°27' E 167°56'7 1.7
2017-Feb-17 21:00N 17°34' E 167°55'1 0.6
2017-Feb-17 19:00N 17°35' E 167°55'2 1.9
2017-Feb-17 18:00N 17°37' E 167°56'7 0.9
2017-Feb-17 10:00N 17°43' E 167°58'1 0.6
2017-Feb-17 09:00N 17°44' E 167°58'2 1.2
2017-Feb-17 07:00N 17°46' E 167°58'2 1.2
2017-Feb-17 05:00N 17°49' E 167°57'1 0.8
2017-Feb-17 04:00N 17°49' E 167°56'2 1.8
2017-Feb-17 03:00N 17°51' E 167°56'2 0.6
2017-Feb-16 23:00N 17°53' E 167°56'1 0.6
2017-Feb-16 21:00N 17°55' E 167°56'0 0.0
2017-Feb-16 20:00N 17°55' E 167°56'3 1.5
2017-Feb-16 18:00N 17°58' E 167°55'6 0.9
2017-Feb-16 11:00N 18°01' E 167°49'3 1.0
2017-Feb-16 08:00N 18°02' E 167°46'1 0.6
2017-Feb-16 07:00N 18°02' E 167°46'1 1.1
2017-Feb-16 06:00N 18°02' E 167°44'2 1.8
2017-Feb-16 05:00N 18°02' E 167°43'1 0.6
2017-Feb-16 03:00N 18°02' E 167°41'6 0.9
2017-Feb-15 20:00N 18°04' E 167°35'1 1.1
2017-Feb-15 19:00N 18°04' E 167°34'1 1.1
2017-Feb-15 18:00N 18°04' E 167°32'1 0.8
2017-Feb-15 17:00N 18°04' E 167°32'9 1.2
2017-Feb-15 10:00N 18°05' E 167°23'1 1.1
2017-Feb-15 09:00N 18°05' E 167°22'2 2.4
2017-Feb-15 08:00N 18°06' E 167°19'2 1.7
2017-Feb-15 07:00N 18°06' E 167°17'1 0.6
2017-Feb-15 06:00N 18°06' E 167°17'2 1.8
2017-Feb-15 05:00N 18°05' E 167°15'2 1.1
2017-Feb-15 03:00N 18°05' E 167°13'4 0.8
2017-Feb-14 22:00N 18°04' E 167°08'2 1.2
2017-Feb-14 20:00N 18°04' E 167°06'1 1.1
2017-Feb-14 19:00N 18°04' E 167°05'5 0.5
2017-Feb-14 08:00N 18°05' E 166°59'0 0.0
2017-Feb-14 07:00N 18°05' E 166°59'4 1.2
2017-Feb-14 04:00N 18°07' E 166°56'6 0.7
2017-Feb-13 20:00N 18°11' E 166°52'1 0.6
2017-Feb-13 19:00N 18°11' E 166°52'6 0.6
2017-Feb-13 09:00N 18°11' E 166°45'1 0.6
2017-Feb-13 08:00N 18°10' E 166°45'0 0.0
2017-Feb-13 07:00N 18°10' E 166°45'1 0.3
2017-Feb-13 05:00N 18°10' E 166°44'1 0.8
2017-Feb-13 04:00N 18°10' E 166°44'1 0.2
2017-Feb-12 21:00N 18°10' E 166°43'1 0.6
2017-Feb-12 20:00N 18°10' E 166°42'0 0.0
2017-Feb-12 19:00N 18°10' E 166°42'  

Dump ship's entire track history